Time;durP1;ratioP1;P1;durP2;ratioP2;P2;SDS_P1;SDS_P2;PMS_P1;PMS_P2;Temp;Humidity;BMP_temperature;BMP_pressure;BME280_temperature;BME280_humidity;BME280_pressure;Samples;Min_cycle;Max_cycle;Signal;HPM_P1;HPM_P2
2023/08/14 00:00:17;;;;;;;6.00;2.22;;;15.20;99.90;;;;;;5030430;28;20033;-54
2023/08/14 00:02:42;;;;;;;4.55;2.38;;;15.20;99.90;;;;;;5030165;28;20021;-54
2023/08/14 00:05:08;;;;;;;6.40;2.75;;;15.20;99.90;;;;;;5030524;28;20479;-53
2023/08/14 00:07:34;;;;;;;7.38;2.53;;;15.30;99.90;;;;;;5044637;22;20064;-54
2023/08/14 00:09:59;;;;;;;7.13;2.47;;;15.30;99.90;;;;;;5030743;28;20366;-56
2023/08/14 00:12:25;;;;;;;5.45;2.58;;;15.30;99.90;;;;;;5030507;28;20052;-55
2023/08/14 00:14:51;;;;;;;6.47;2.03;;;15.30;99.90;;;;;;5030872;28;20052;-54
2023/08/14 00:17:16;;;;;;;9.80;2.78;;;15.30;99.90;;;;;;5030299;28;20061;-54
2023/08/14 00:19:42;;;;;;;5.80;2.25;;;15.20;99.90;;;;;;5030049;28;20025;-56
2023/08/14 00:22:08;;;;;;;3.22;2.05;;;15.10;99.90;;;;;;5030012;28;20037;-54
2023/08/14 00:24:34;;;;;;;4.55;2.30;;;15.10;99.90;;;;;;5030073;28;20601;-53
2023/08/14 00:26:59;;;;;;;4.93;2.35;;;15.10;99.90;;;;;;5032996;28;20113;-55
2023/08/14 00:29:26;;;;;;;5.22;2.38;;;15.10;99.90;;;;;;5016398;28;20029;-55
2023/08/14 00:31:51;;;;;;;4.85;2.47;;;15.00;99.90;;;;;;5034008;28;20052;-51
2023/08/14 00:34:17;;;;;;;7.70;3.00;;;15.00;99.90;;;;;;5016024;28;20036;-52
2023/08/14 00:36:43;;;;;;;5.60;2.28;;;15.00;99.90;;;;;;5015906;28;20040;-53
2023/08/14 00:39:08;;;;;;;4.82;2.40;;;15.00;99.90;;;;;;5033827;28;20108;-53
2023/08/14 00:41:34;;;;;;;7.78;2.45;;;15.00;99.90;;;;;;5015752;28;20143;-53
2023/08/14 00:44:00;;;;;;;5.43;2.30;;;15.00;99.90;;;;;;5015933;28;20029;-53
2023/08/14 00:46:25;;;;;;;7.50;2.90;;;15.00;99.90;;;;;;5015820;28;20037;-51
2023/08/14 00:48:52;;;;;;;8.90;3.30;;;14.90;99.90;;;;;;5015787;28;20486;-49
2023/08/14 00:51:21;;;;;;;7.45;2.42;;;14.90;99.90;;;;;;5033828;28;20065;-49
2023/08/14 00:53:48;;;;;;;6.45;2.72;;;15.00;99.90;;;;;;5015575;28;20087;-49
2023/08/14 00:56:14;;;;;;;4.63;2.30;;;15.00;99.90;;;;;;5015569;28;20041;-51
2023/08/14 00:58:40;;;;;;;5.20;2.55;;;15.00;99.90;;;;;;5015798;28;20037;-51
2023/08/14 01:01:07;;;;;;;7.40;2.42;;;15.00;99.90;;;;;;5015574;28;20116;-50
2023/08/14 01:03:34;;;;;;;7.50;2.47;;;15.00;99.90;;;;;;5015309;28;20029;-50
2023/08/14 01:06:00;;;;;;;5.55;2.45;;;15.00;99.90;;;;;;5033252;28;20104;-51
2023/08/14 01:08:27;;;;;;;7.18;2.80;;;15.00;99.90;;;;;;5015561;28;20038;-52
2023/08/14 01:11:19;;;;;;;5.90;3.00;;;15.10;99.90;;;;;;5015704;28;20497;-49
2023/08/14 01:14:09;;;;;;;6.97;2.60;;;15.00;99.90;;;;;;5015336;28;20091;-49
2023/08/14 01:16:39;;;;;;;5.45;2.40;;;15.00;99.90;;;;;;5033137;28;20056;-51
2023/08/14 01:19:09;;;;;;;5.45;2.28;;;15.00;99.90;;;;;;5015561;28;20030;-49
2023/08/14 01:22:20;;;;;;;5.10;2.10;;;14.90;99.90;;;;;;5032982;28;20708;-49
2023/08/14 01:24:58;;;;;;;6.68;2.80;;;14.90;99.90;;;;;;5015488;28;20072;-52
2023/08/14 01:27:24;;;;;;;4.68;2.53;;;14.90;99.90;;;;;;5015106;28;20025;-56
2023/08/14 01:29:59;;;;;;;4.75;2.58;;;14.80;99.90;;;;;;5015526;28;20529;-52
2023/08/14 01:32:25;;;;;;;7.22;2.60;;;14.80;99.90;;;;;;5015063;28;20030;-55
2023/08/14 01:34:52;;;;;;;6.18;2.67;;;14.70;99.90;;;;;;5015157;28;20390;-55
2023/08/14 01:37:24;;;;;;;7.10;2.80;;;14.70;99.90;;;;;;5032042;28;20030;-51
2023/08/14 01:39:59;;;;;;;6.43;2.47;;;14.70;99.90;;;;;;5033060;28;20029;-50
2023/08/14 01:42:32;;;;;;;4.57;2.28;;;14.60;99.90;;;;;;5015161;28;20394;-51
2023/08/14 01:45:05;;;;;;;3.90;2.30;;;14.60;99.90;;;;;;5015179;28;20087;-51
2023/08/14 01:47:32;;;;;;;6.72;2.65;;;14.60;99.90;;;;;;5032638;28;20159;-50
2023/08/14 01:50:00;;;;;;;6.40;2.30;;;14.60;99.90;;;;;;5014966;28;20119;-52
2023/08/14 01:52:26;;;;;;;5.43;2.60;;;14.60;99.90;;;;;;5014486;28;20175;-52
2023/08/14 01:54:52;;;;;;;6.45;2.78;;;14.60;99.90;;;;;;5032578;28;20493;-54
2023/08/14 01:57:17;;;;;;;5.47;2.70;;;14.60;99.90;;;;;;5014421;28;20124;-57
2023/08/14 01:59:47;;;;;;;5.90;2.30;;;14.60;99.90;;;;;;5014597;28;20119;-57
2023/08/14 02:02:13;;;;;;;7.43;2.53;;;14.60;99.90;;;;;;5014379;28;20506;-55
2023/08/14 02:04:39;;;;;;;5.18;2.00;;;14.60;99.90;;;;;;5032230;28;20029;-55
2023/08/14 02:07:05;;;;;;;7.97;2.75;;;14.60;99.90;;;;;;5014221;28;20029;-57
2023/08/14 02:09:32;;;;;;;7.90;2.35;;;14.60;99.90;;;;;;5014447;28;20124;-53
2023/08/14 02:12:01;;;;;;;7.70;2.92;;;14.70;99.90;;;;;;5031943;28;20450;-56
2023/08/14 02:14:27;;;;;;;6.65;2.90;;;14.70;99.90;;;;;;5014208;28;20057;-56
2023/08/14 02:16:52;;;;;;;6.38;2.40;;;14.70;99.90;;;;;;5014245;28;20536;-54
2023/08/14 02:19:18;;;;;;;4.97;2.20;;;14.60;99.90;;;;;;5014342;28;20425;-55
2023/08/14 02:21:44;;;;;;;5.40;2.22;;;14.60;99.90;;;;;;5014015;28;20116;-53
2023/08/14 02:24:10;;;;;;;6.60;2.13;;;14.60;99.90;;;;;;5031868;28;20076;-52
2023/08/14 02:26:36;;;;;;;4.45;2.20;;;14.50;99.90;;;;;;5013843;28;20052;-56
2023/08/14 02:29:01;;;;;;;7.60;2.50;;;14.50;99.90;;;;;;5031677;28;20075;-55
2023/08/14 02:31:27;;;;;;;7.18;2.80;;;14.40;99.90;;;;;;5031611;28;20479;-55
2023/08/14 02:34:00;;;;;;;6.05;2.28;;;14.40;99.90;;;;;;5013850;28;20034;-54
2023/08/14 02:36:27;;;;;;;7.90;2.20;;;14.40;99.90;;;;;;5031496;28;20049;-53
2023/08/14 02:38:54;;;;;;;4.60;2.55;;;14.40;99.90;;;;;;5014077;28;20037;-54
2023/08/14 02:41:20;;;;;;;4.38;2.33;;;14.30;99.90;;;;;;5013519;28;20034;-55
2023/08/14 02:43:45;;;;;;;5.72;2.15;;;14.40;99.90;;;;;;5013643;28;20305;-55
2023/08/14 02:46:11;;;;;;;6.05;2.70;;;14.30;99.90;;;;;;5013595;28;20044;-55
2023/08/14 02:48:38;;;;;;;4.65;2.75;;;14.30;99.90;;;;;;5030926;28;20425;-56
2023/08/14 02:51:03;;;;;;;6.47;2.35;;;14.30;99.90;;;;;;5030849;28;20044;-53
2023/08/14 02:53:29;;;;;;;8.05;2.33;;;14.30;99.90;;;;;;5031039;28;20033;-56
2023/08/14 02:55:55;;;;;;;6.80;2.75;;;14.30;99.90;;;;;;5013388;28;20417;-54
2023/08/14 02:58:21;;;;;;;5.60;2.67;;;14.30;99.90;;;;;;5013592;28;20090;-55
2023/08/14 03:00:47;;;;;;;6.93;3.17;;;14.30;99.90;;;;;;5013414;28;20116;-54
2023/08/14 03:03:13;;;;;;;7.25;2.88;;;14.30;99.90;;;;;;5030879;28;20175;-54
2023/08/14 03:05:40;;;;;;;5.32;2.60;;;14.30;99.90;;;;;;5013351;28;20041;-56
2023/08/14 03:08:06;;;;;;;6.07;2.80;;;14.30;99.90;;;;;;5030869;28;20026;-57
2023/08/14 03:10:32;;;;;;;6.00;2.58;;;14.20;99.90;;;;;;5013554;28;20034;-56
2023/08/14 03:13:00;;;;;;;7.97;2.80;;;14.20;99.90;;;;;;5013091;28;20036;-56
2023/08/14 03:15:26;;;;;;;6.97;2.60;;;14.20;99.90;;;;;;5013483;28;20057;-57
2023/08/14 03:17:51;;;;;;;7.45;2.60;;;14.10;99.90;;;;;;5012991;28;20494;-56
2023/08/14 03:20:17;;;;;;;8.52;3.03;;;14.10;99.90;;;;;;5013037;28;20044;-54
2023/08/14 03:22:43;;;;;;;7.35;2.50;;;14.10;99.90;;;;;;5030594;28;20030;-55
2023/08/14 03:25:09;;;;;;;6.25;2.80;;;14.10;99.90;;;;;;5012821;28;20030;-55
2023/08/14 03:27:35;;;;;;;5.35;2.88;;;14.10;99.90;;;;;;5012977;28;20079;-52
2023/08/14 03:30:01;;;;;;;5.38;2.67;;;14.20;99.90;;;;;;5030692;28;20437;-55
2023/08/14 03:32:26;;;;;;;6.22;3.20;;;14.20;99.90;;;;;;5013021;28;20482;-56
2023/08/14 03:34:52;;;;;;;6.47;3.00;;;14.20;99.90;;;;;;5012850;28;20045;-56
2023/08/14 03:37:18;;;;;;;6.45;2.53;;;14.20;99.90;;;;;;5012657;28;20033;-54
2023/08/14 03:39:43;;;;;;;8.07;2.67;;;14.10;99.90;;;;;;5012668;28;20120;-55
2023/08/14 03:42:09;;;;;;;8.93;3.17;;;14.10;99.90;;;;;;5030410;28;20041;-57
2023/08/14 03:44:35;;;;;;;7.38;2.95;;;14.10;99.90;;;;;;4996578;28;20036;-57
2023/08/14 03:47:00;;;;;;;5.38;2.70;;;14.00;99.90;;;;;;5012580;28;20040;-56
2023/08/14 03:49:26;;;;;;;5.53;3.08;;;14.00;99.90;;;;;;5012783;28;20025;-57
2023/08/14 03:51:51;;;;;;;8.23;3.22;;;14.10;99.90;;;;;;4996362;28;20025;-56
2023/08/14 03:54:17;;;;;;;8.98;3.33;;;14.00;99.90;;;;;;5012607;28;20394;-56
2023/08/14 03:56:43;;;;;;;5.15;2.75;;;14.00;99.90;;;;;;5012662;28;20436;-53
2023/08/14 03:59:09;;;;;;;6.53;3.17;;;14.10;99.90;;;;;;5030549;28;20026;-54
2023/08/14 04:01:36;;;;;;;6.57;2.75;;;14.10;99.90;;;;;;5015238;28;20029;-55
2023/08/14 04:04:02;;;;;;;6.35;3.53;;;14.00;99.90;;;;;;5017074;28;20467;-57
2023/08/14 04:06:28;;;;;;;7.32;2.95;;;14.00;99.90;;;;;;5016794;28;20029;-54
2023/08/14 04:08:54;;;;;;;6.57;2.78;;;14.00;99.90;;;;;;5034553;28;20052;-54
2023/08/14 04:11:21;;;;;;;4.22;2.55;;;14.00;99.90;;;;;;5016830;28;20052;-55
2023/08/14 04:13:47;;;;;;;7.07;2.78;;;14.00;99.90;;;;;;5017306;28;20561;-55
2023/08/14 04:16:12;;;;;;;8.60;3.38;;;14.00;99.90;;;;;;5034489;28;20104;-54
2023/08/14 04:18:38;;;;;;;6.97;2.78;;;14.00;99.90;;;;;;5034806;28;20347;-56
2023/08/14 04:21:04;;;;;;;7.03;3.25;;;14.00;99.90;;;;;;5034864;28;20029;-54
2023/08/14 04:23:30;;;;;;;6.65;2.85;;;14.10;99.90;;;;;;5016445;28;20021;-55
2023/08/14 04:25:56;;;;;;;8.90;3.30;;;14.10;99.90;;;;;;5016538;28;20029;-54
2023/08/14 04:28:22;;;;;;;5.47;3.00;;;14.20;99.90;;;;;;5034174;28;20060;-56
2023/08/14 04:30:48;;;;;;;6.70;2.72;;;14.20;99.90;;;;;;5016621;28;20124;-55
2023/08/14 04:33:14;;;;;;;6.50;2.75;;;14.10;99.90;;;;;;5034112;28;20525;-56
2023/08/14 04:35:41;;;;;;;7.38;3.08;;;14.10;99.90;;;;;;5016531;28;20033;-54
2023/08/14 04:38:07;;;;;;;7.45;3.28;;;14.10;99.90;;;;;;4999614;28;20029;-53
2023/08/14 04:40:35;;;;;;;7.93;3.00;;;14.10;99.90;;;;;;5016212;28;20087;-56
2023/08/14 04:43:01;;;;;;;8.00;3.13;;;14.00;99.90;;;;;;5016037;28;20041;-53
2023/08/14 04:45:27;;;;;;;6.82;3.38;;;14.00;99.90;;;;;;5033929;28;20625;-55
2023/08/14 04:47:52;;;;;;;8.32;3.20;;;14.00;99.90;;;;;;5016053;28;20029;-55
2023/08/14 04:50:18;;;;;;;4.60;2.67;;;14.00;99.90;;;;;;5016072;28;20069;-56
2023/08/14 04:52:44;;;;;;;8.27;3.20;;;14.00;99.90;;;;;;5015678;28;20029;-56
2023/08/14 04:55:10;;;;;;;7.53;3.80;;;14.10;99.90;;;;;;5016035;28;20035;-54
2023/08/14 04:57:38;;;;;;;9.15;3.40;;;14.10;99.90;;;;;;5015686;28;20037;-55
2023/08/14 05:00:07;;;;;;;7.80;3.80;;;14.10;99.90;;;;;;5015729;28;20323;-53
2023/08/14 05:02:34;;;;;;;7.70;3.33;;;14.10;99.90;;;;;;5015501;28;20398;-55
2023/08/14 05:05:00;;;;;;;6.40;3.38;;;14.20;99.90;;;;;;5015700;28;20049;-56
2023/08/14 05:07:26;;;;;;;8.38;3.08;;;14.20;99.90;;;;;;5015429;28;20029;-56
2023/08/14 05:09:51;;;;;;;6.85;3.17;;;14.30;99.90;;;;;;5015725;28;20026;-56
2023/08/14 05:12:17;;;;;;;10.57;3.00;;;14.30;99.90;;;;;;5014252;28;20052;-56
2023/08/14 05:14:43;;;;;;;5.90;2.53;;;14.40;99.90;;;;;;5015811;28;20069;-56
2023/08/14 05:17:08;;;;;;;7.70;3.10;;;14.40;99.90;;;;;;5015456;28;20111;-55
2023/08/14 05:19:34;;;;;;;7.65;2.83;;;14.50;99.90;;;;;;5015648;28;20033;-57
2023/08/14 05:21:59;;;;;;;9.05;3.15;;;14.50;99.90;;;;;;5032962;28;20021;-54
2023/08/14 05:24:25;;;;;;;6.72;2.47;;;14.60;99.90;;;;;;5033158;28;20034;-56
2023/08/14 05:26:51;;;;;;;6.65;2.80;;;14.60;99.90;;;;;;5033083;28;20103;-55
2023/08/14 05:29:16;;;;;;;6.10;3.10;;;14.70;99.90;;;;;;5033117;28;20071;-55
2023/08/14 05:31:42;;;;;;;7.22;3.00;;;14.80;99.90;;;;;;5032975;28;20033;-55
2023/08/14 05:34:07;;;;;;;7.22;3.03;;;15.00;99.90;;;;;;5032951;28;20037;-57
2023/08/14 05:36:33;;;;;;;8.30;3.53;;;15.10;99.90;;;;;;5032577;28;20048;-57
2023/08/14 05:38:59;;;;;;;7.13;3.13;;;15.20;99.90;;;;;;5032978;28;20128;-54
2023/08/14 05:41:25;;;;;;;5.40;2.67;;;15.40;99.90;;;;;;5032680;28;20083;-54
2023/08/14 05:43:50;;;;;;;10.27;3.10;;;15.40;99.90;;;;;;5032955;28;20447;-57
2023/08/14 05:46:16;;;;;;;6.57;2.67;;;15.60;99.90;;;;;;5032560;28;20030;-55
2023/08/14 05:48:42;;;;;;;6.15;2.70;;;15.80;99.90;;;;;;5032804;28;20079;-55
2023/08/14 05:51:07;;;;;;;10.43;4.00;;;16.00;99.90;;;;;;5032517;28;20482;-56
2023/08/14 05:53:33;;;;;;;5.43;2.35;;;16.20;99.90;;;;;;5032387;28;20544;-54
2023/08/14 05:55:58;;;;;;;4.70;3.03;;;16.50;99.90;;;;;;5032594;28;20041;-53
2023/08/14 05:58:24;;;;;;;7.60;2.85;;;16.70;99.90;;;;;;5032799;28;20080;-54
2023/08/14 06:00:50;;;;;;;8.57;2.80;;;16.80;99.90;;;;;;5032503;28;20566;-54
2023/08/14 06:03:15;;;;;;;6.50;2.38;;;16.90;99.90;;;;;;5032158;28;20061;-52
2023/08/14 06:05:41;;;;;;;7.32;2.35;;;17.00;99.90;;;;;;5032278;28;20057;-55
2023/08/14 06:08:07;;;;;;;7.00;2.22;;;17.10;99.90;;;;;;5046209;22;20042;-54
2023/08/14 06:10:32;;;;;;;8.75;3.25;;;17.20;99.90;;;;;;5032443;28;20559;-54
2023/08/14 06:12:58;;;;;;;5.78;2.55;;;17.30;99.90;;;;;;5032032;28;20116;-51
2023/08/14 06:15:25;;;;;;;8.75;3.15;;;17.40;99.90;;;;;;5032181;28;20065;-53
2023/08/14 06:17:51;;;;;;;9.73;2.83;;;17.50;99.90;;;;;;5014598;28;20034;-54
2023/08/14 06:20:17;;;;;;;6.90;2.25;;;17.60;99.90;;;;;;5032175;28;20401;-54
2023/08/14 06:22:46;;;;;;;8.25;2.67;;;17.60;99.90;;;;;;5031904;28;20029;-54
2023/08/14 06:25:12;;;;;;;;;;;17.70;99.90;;;;;;5014745;28;20033;-52
2023/08/14 06:27:38;;;;;;;8.90;3.60;;;17.80;99.90;;;;;;5031748;28;19995;-52
2023/08/14 06:30:05;;;;;;;6.82;2.85;;;17.80;99.90;;;;;;5031949;28;20079;-52
2023/08/14 06:32:31;;;;;;;5.78;2.90;;;17.90;99.90;;;;;;5031689;28;20029;-52
2023/08/14 06:34:56;;;;;;;5.60;2.58;;;17.90;99.90;;;;;;5014149;28;20076;-54
2023/08/14 06:37:22;;;;;;;6.38;2.40;;;18.00;99.90;;;;;;5031529;28;20029;-54
2023/08/14 06:39:48;;;;;;;5.72;2.40;;;18.10;99.90;;;;;;5031868;28;20033;-54
2023/08/14 06:42:13;;;;;;;7.80;2.53;;;18.20;99.90;;;;;;5031616;28;20029;-55
2023/08/14 06:44:39;;;;;;;8.50;2.97;;;18.20;99.90;;;;;;5031575;28;20037;-54
2023/08/14 06:47:05;;;;;;;9.88;3.83;;;18.20;99.90;;;;;;5013723;28;20136;-53
2023/08/14 06:49:31;;;;;;;9.90;5.05;;;18.20;99.90;;;;;;5031564;28;20048;-53
2023/08/14 06:51:57;;;;;;;6.93;3.00;;;18.30;99.90;;;;;;5031471;28;20032;-51
2023/08/14 06:54:23;;;;;;;6.63;2.50;;;18.30;99.90;;;;;;5031406;28;20080;-51
2023/08/14 06:56:48;;;;;;;6.85;2.70;;;18.40;99.90;;;;;;5031401;28;20025;-52
2023/08/14 06:59:14;;;;;;;5.65;2.08;;;18.50;99.90;;;;;;5031375;28;20394;-53
2023/08/14 07:01:40;;;;;;;4.63;2.38;;;18.60;99.90;;;;;;5031032;28;20091;-51
2023/08/14 07:04:06;;;;;;;6.00;2.58;;;18.60;99.90;;;;;;5031223;28;20056;-54
2023/08/14 07:06:32;;;;;;;5.85;2.25;;;18.70;99.90;;;;;;5031134;28;20072;-49
2023/08/14 07:08:57;;;;;;;6.45;2.35;;;18.70;99.90;;;;;;5031222;28;20025;-50
2023/08/14 07:11:23;;;;;;;7.97;2.67;;;18.70;99.90;;;;;;5031202;28;20034;-54
2023/08/14 07:13:48;;;;;;;7.22;1.95;;;18.70;99.90;;;;;;5031515;28;20104;-49
2023/08/14 07:16:14;;;;;;;5.15;2.08;;;18.80;99.90;;;;;;5030970;28;20398;-49
2023/08/14 07:18:40;;;;;;;4.88;1.90;;;18.70;99.90;;;;;;5031344;28;20324;-51
2023/08/14 07:21:05;;;;;;;6.63;2.13;;;18.60;99.90;;;;;;5031238;28;20102;-54
2023/08/14 07:23:32;;;;;;;5.55;2.33;;;18.60;99.90;;;;;;5031119;28;20026;-51
2023/08/14 07:25:59;;;;;;;4.43;2.20;;;18.60;99.90;;;;;;5031164;28;20033;-54
2023/08/14 07:28:25;;;;;;;4.40;2.00;;;18.60;99.90;;;;;;5031127;28;20026;-50
2023/08/14 07:30:51;;;;;;;5.28;2.05;;;18.50;99.90;;;;;;5031163;28;20108;-51
2023/08/14 07:33:17;;;;;;;3.88;2.13;;;18.60;99.90;;;;;;5030765;28;20056;-50
2023/08/14 07:35:42;;;;;;;4.32;2.17;;;18.60;99.90;;;;;;5030317;28;20030;-54
2023/08/14 07:38:08;;;;;;;5.43;2.00;;;18.70;99.90;;;;;;5031321;28;20029;-54
2023/08/14 07:40:34;;;;;;;6.38;2.42;;;18.70;99.90;;;;;;5030751;28;20034;-53
2023/08/14 07:42:59;;;;;;;5.38;2.00;;;18.80;99.90;;;;;;5012730;28;20081;-53
2023/08/14 07:45:25;;;;;;;3.30;1.83;;;19.00;99.90;;;;;;5030899;28;20041;-54
2023/08/14 07:47:51;;;;;;;6.25;2.05;;;19.00;99.90;;;;;;5030672;28;20021;-54
2023/08/14 07:50:16;;;;;;;4.47;1.83;;;19.30;99.90;;;;;;5030685;28;20095;-51
2023/08/14 07:52:42;;;;;;;5.75;2.05;;;19.30;99.90;;;;;;5030230;28;20108;-54
2023/08/14 07:55:08;;;;;;;6.22;2.20;;;19.40;99.90;;;;;;5030612;28;20048;-54
2023/08/14 07:57:33;;;;;;;5.00;2.22;;;19.40;99.90;;;;;;5030342;28;20076;-53
2023/08/14 07:59:59;;;;;;;8.98;2.30;;;19.50;99.90;;;;;;5030333;28;20079;-51
2023/08/14 08:02:26;;;;;;;5.07;2.30;;;19.50;99.90;;;;;;5030045;28;20033;-51
2023/08/14 08:04:51;;;;;;;3.88;2.30;;;19.50;99.90;;;;;;5030944;28;20032;-50
2023/08/14 08:07:17;;;;;;;6.90;2.28;;;19.50;99.90;;;;;;5030247;28;20496;-49
2023/08/14 08:09:42;;;;;;;5.53;2.10;;;19.60;99.90;;;;;;5030500;28;20030;-54
2023/08/14 08:12:08;;;;;;;4.18;2.38;;;19.70;99.90;;;;;;5030197;28;20390;-53
2023/08/14 08:14:35;;;;;;;8.50;2.45;;;19.70;99.90;;;;;;5030337;28;20034;-51
2023/08/14 08:17:02;;;;;;;8.27;2.28;;;19.80;99.90;;;;;;5030284;28;20029;-53
2023/08/14 08:19:27;;;;;;;7.00;2.45;;;20.00;99.90;;;;;;5030268;28;20029;-49
2023/08/14 08:21:53;;;;;;;6.13;2.30;;;20.10;99.90;;;;;;5012448;28;20041;-52
2023/08/14 08:24:19;;;;;;;7.15;2.17;;;20.30;99.90;;;;;;5030194;28;20026;-52
2023/08/14 08:26:46;;;;;;;4.40;2.03;;;20.40;99.90;;;;;;5029892;28;20043;-51
2023/08/14 08:29:11;;;;;;;6.43;2.50;;;20.60;99.90;;;;;;5030269;28;20501;-48
2023/08/14 08:31:37;;;;;;;5.40;2.17;;;20.60;99.90;;;;;;5029983;28;20041;-53
2023/08/14 08:34:03;;;;;;;4.85;1.98;;;20.80;99.90;;;;;;5030109;28;20037;-50
2023/08/14 08:36:29;;;;;;;5.28;2.00;;;20.90;99.90;;;;;;5012374;28;20037;-53
2023/08/14 08:38:54;;;;;;;4.03;1.70;;;21.00;99.90;;;;;;5030229;28;20030;-51
2023/08/14 08:41:40;;;;;;;6.05;1.88;;;21.10;99.90;;;;;;5029894;28;20025;-53
2023/08/14 08:44:10;;;;;;;7.47;2.10;;;21.10;99.90;;;;;;5030131;28;20036;-48
2023/08/14 08:46:37;;;;;;;4.70;2.10;;;21.20;99.90;;;;;;5031009;28;20061;-52
2023/08/14 08:49:04;;;;;;;3.70;1.73;;;21.30;99.90;;;;;;5033854;28;20030;-48
2023/08/14 08:51:33;;;;;;;5.45;1.80;;;21.40;99.90;;;;;;5033503;28;20033;-49
2023/08/14 08:54:00;;;;;;;5.60;1.80;;;21.40;99.90;;;;;;5033540;28;20467;-49
2023/08/14 08:56:26;;;;;;;5.72;1.95;;;21.50;99.90;;;;;;5033545;28;20083;-50
2023/08/14 08:58:52;;;;;;;4.55;1.90;;;21.60;99.90;;;;;;5033672;28;20065;-49
2023/08/14 09:01:20;;;;;;;4.20;1.77;;;21.70;99.90;;;;;;5033538;28;20063;-49
2023/08/14 09:03:47;;;;;;;3.25;1.70;;;21.80;99.90;;;;;;5033528;28;20029;-50
2023/08/14 09:06:12;;;;;;;5.63;1.73;;;21.80;99.90;;;;;;5033516;28;20025;-49
2023/08/14 09:08:38;;;;;;;5.32;1.80;;;21.90;99.90;;;;;;5033281;28;20033;-48
2023/08/14 09:11:04;;;;;;;3.35;1.50;;;22.00;99.90;;;;;;5033601;28;20030;-49
2023/08/14 09:13:29;;;;;;;3.58;1.85;;;22.10;99.90;;;;;;5033200;28;20029;-48
2023/08/14 09:15:55;;;;;;;4.38;1.30;;;22.20;99.90;;;;;;5033295;28;20026;-54
2023/08/14 09:18:20;;;;;;;3.70;1.48;;;22.30;99.90;;;;;;5033334;28;20026;-54
2023/08/14 09:20:46;;;;;;;3.95;1.30;;;22.30;99.90;;;;;;5033140;28;20033;-51
2023/08/14 09:23:12;;;;;;;7.15;1.60;;;22.40;99.90;;;;;;5032929;28;20026;-52
2023/08/14 09:25:40;;;;;;;5.18;1.48;;;22.50;99.90;;;;;;5033054;28;20445;-49
2023/08/14 09:28:08;;;;;;;5.70;1.83;;;22.70;99.90;;;;;;5033006;28;20083;-51
2023/08/14 09:30:36;;;;;;;4.40;1.53;;;22.70;99.90;;;;;;5033206;28;20107;-52
2023/08/14 09:33:05;;;;;;;3.17;1.27;;;22.80;99.90;;;;;;5033126;28;20444;-52
2023/08/14 09:35:31;;;;;;;3.17;1.27;;;22.90;99.90;;;;;;5032980;28;20107;-52
2023/08/14 09:37:59;;;;;;;3.55;1.40;;;22.90;99.90;;;;;;5032827;28;20481;-52
2023/08/14 09:40:24;;;;;;;5.40;1.27;;;23.00;99.90;;;;;;5032835;28;20033;-53
2023/08/14 09:42:50;;;;;;;3.78;1.30;;;23.10;99.90;;;;;;5032549;28;20079;-53
2023/08/14 09:45:23;;;;;;;3.10;1.10;;;23.30;99.90;;;;;;5032758;28;20040;-50
2023/08/14 09:47:50;;;;;;;2.67;1.35;;;23.40;99.90;;;;;;5032600;28;20110;-52
2023/08/14 09:50:17;;;;;;;4.65;1.38;;;23.50;99.90;;;;;;5032675;28;20025;-51
2023/08/14 09:52:43;;;;;;;5.15;1.40;;;23.70;99.90;;;;;;5032463;28;20029;-53
2023/08/14 09:55:10;;;;;;;6.22;1.30;;;23.80;99.90;;;;;;5032644;28;20033;-52
2023/08/14 09:57:36;;;;;;;4.43;1.27;;;24.00;99.90;;;;;;5032447;28;20083;-53
2023/08/14 10:00:02;;;;;;;3.80;1.10;;;24.10;99.90;;;;;;5031871;28;20051;-50
2023/08/14 10:02:33;;;;;;;2.83;1.30;;;24.20;99.90;;;;;;5032793;28;20117;-53
2023/08/14 10:05:00;;;;;;;3.78;1.23;;;24.30;99.90;;;;;;5032456;28;20053;-53
2023/08/14 10:07:26;;;;;;;4.22;1.35;;;24.40;99.90;;;;;;5032296;28;20029;-52
2023/08/14 10:09:56;;;;;;;5.65;1.48;;;24.40;99.90;;;;;;5032375;28;20052;-52
2023/08/14 10:12:27;;;;;;;3.33;1.45;;;24.30;99.90;;;;;;5032084;28;20116;-51
2023/08/14 10:15:11;;;;;;;3.97;1.40;;;24.40;99.90;;;;;;5032310;28;20052;-52
2023/08/14 10:17:47;;;;;;;3.00;1.25;;;24.50;99.90;;;;;;5032096;28;20056;-52
2023/08/14 10:20:17;;;;;;;4.70;1.20;;;24.60;99.90;;;;;;5014387;28;20134;-53
2023/08/14 10:22:43;;;;;;;5.20;1.20;;;24.70;99.90;;;;;;5031922;28;20553;-53
2023/08/14 10:25:11;;;;;;;7.80;1.50;;;24.60;99.90;;;;;;5032127;28;20084;-54
2023/08/14 10:27:37;;;;;;;3.38;1.27;;;24.60;99.90;;;;;;5031790;28;20029;-52
2023/08/14 10:30:04;;;;;;;3.70;1.30;;;24.90;99.90;;;;;;5032212;28;20459;-53
2023/08/14 10:32:30;;;;;;;4.85;1.50;;;24.80;99.20;;;;;;5031857;28;20404;-54
2023/08/14 10:34:56;;;;;;;3.33;1.33;;;24.70;99.60;;;;;;5032346;28;20021;-54
2023/08/14 10:37:25;;;;;;;3.10;1.42;;;24.60;99.90;;;;;;5031846;28;20524;-53
2023/08/14 10:39:51;;;;;;;4.38;1.55;;;24.70;99.90;;;;;;5031964;28;20061;-52
2023/08/14 10:42:17;;;;;;;3.35;1.33;;;24.80;98.70;;;;;;5031592;28;20058;-52
2023/08/14 10:44:43;;;;;;;7.05;1.92;;;24.70;99.40;;;;;;5031874;28;20038;-53
2023/08/14 10:47:12;;;;;;;5.80;2.30;;;24.70;99.80;;;;;;5014288;28;20030;-52
2023/08/14 10:49:58;;;;;;;;;;;24.80;99.90;;;;;;5032610;28;20052;-52
2023/08/14 10:52:25;;;;;;;2.72;1.20;;;25.00;99.50;;;;;;5030843;28;19913;-53
2023/08/14 10:54:52;;;;;;;6.65;2.22;;;25.10;99.50;;;;;;5013818;28;20064;-53
2023/08/14 10:57:26;;;;;;;5.38;2.88;;;25.10;99.50;;;;;;5031687;28;20371;-51
2023/08/14 10:59:56;;;;;;;5.78;1.40;;;25.20;99.10;;;;;;5031684;28;20029;-52
2023/08/14 11:02:22;;;;;;;6.93;2.88;;;25.20;98.70;;;;;;5031182;28;20030;-52
2023/08/14 11:05:21;;;;;;;5.60;2.03;;;25.20;99.90;;;;;;5031446;28;20028;-53
2023/08/14 11:07:57;;;;;;;4.63;1.70;;;25.30;97.30;;;;;;5030658;28;20064;-51
2023/08/14 11:10:26;;;;;;;5.40;1.67;;;25.50;98.00;;;;;;5030406;28;20033;-53
2023/08/14 11:12:54;;;;;;;2.33;1.13;;;25.60;97.90;;;;;;5030799;28;20060;-51
2023/08/14 11:15:20;;;;;;;3.83;1.58;;;25.70;96.60;;;;;;5031224;28;20034;-51
2023/08/14 11:17:47;;;;;;;3.80;1.55;;;25.70;96.80;;;;;;5030833;28;20037;-51
2023/08/14 11:20:13;;;;;;;4.05;1.45;;;25.60;97.00;;;;;;5031086;28;20037;-49
2023/08/14 11:22:42;;;;;;;6.82;3.10;;;25.60;97.20;;;;;;5030879;28;20446;-53
2023/08/14 11:25:08;;;;;;;6.50;2.75;;;25.60;98.00;;;;;;5031046;28;20462;-53
2023/08/14 11:27:34;;;;;;;9.35;4.78;;;25.70;98.00;;;;;;5030882;28;20053;-52
2023/08/14 11:30:02;;;;;;;3.72;1.70;;;25.80;98.10;;;;;;5030816;28;20025;-53
2023/08/14 11:32:27;;;;;;;2.70;1.27;;;25.90;96.60;;;;;;5030575;28;20045;-50
2023/08/14 11:34:53;;;;;;;4.57;1.50;;;25.90;97.00;;;;;;5030778;28;20079;-51
2023/08/14 11:37:19;;;;;;;3.75;1.50;;;25.90;96.60;;;;;;5030677;28;20037;-53
2023/08/14 11:39:45;;;;;;;6.05;2.45;;;26.00;97.50;;;;;;5031091;28;20033;-53
2023/08/14 11:42:10;;;;;;;5.05;1.73;;;26.10;96.80;;;;;;5030472;28;20090;-54
2023/08/14 11:44:36;;;;;;;4.70;1.63;;;26.10;95.80;;;;;;5030617;28;20052;-53
2023/08/14 11:47:06;;;;;;;8.23;3.55;;;26.20;95.70;;;;;;5030477;28;20036;-53
2023/08/14 11:49:35;;;;;;;3.70;1.42;;;26.20;96.30;;;;;;5013696;28;20072;-54
2023/08/14 11:52:05;;;;;;;3.58;1.80;;;26.30;95.90;;;;;;5030514;28;20394;-54
2023/08/14 11:54:35;;;;;;;5.72;2.20;;;26.30;95.80;;;;;;5030521;28;20041;-54
2023/08/14 11:57:05;;;;;;;3.92;1.92;;;26.50;94.90;;;;;;5030353;28;20044;-54
2023/08/14 11:59:31;;;;;;;9.93;4.13;;;26.60;94.40;;;;;;5030526;28;20469;-54
2023/08/14 12:01:57;;;;;;;5.93;2.40;;;26.60;95.20;;;;;;5030289;28;20033;-54
2023/08/14 12:04:22;;;;;;;6.57;2.63;;;26.70;95.40;;;;;;5030429;28;20026;-55
2023/08/14 12:06:48;;;;;;;6.20;2.50;;;26.70;95.00;;;;;;5030306;28;20029;-54
2023/08/14 12:09:14;;;;;;;7.65;2.67;;;26.70;95.80;;;;;;5030469;28;20041;-53
2023/08/14 12:11:39;;;;;;;5.45;1.75;;;26.80;95.80;;;;;;5030847;28;20037;-53
2023/08/14 12:14:06;;;;;;;5.97;1.60;;;26.80;95.40;;;;;;5030300;28;20041;-50
2023/08/14 12:16:36;;;;;;;9.27;3.78;;;26.90;95.90;;;;;;5030249;28;20393;-52
2023/08/14 12:19:06;;;;;;;4.43;1.73;;;26.90;96.40;;;;;;5030651;28;20466;-51
2023/08/14 12:21:32;;;;;;;3.58;1.48;;;26.80;95.80;;;;;;5030915;28;20061;-53
2023/08/14 12:23:57;;;;;;;6.53;2.55;;;26.70;95.40;;;;;;5034095;28;20057;-50
2023/08/14 12:26:23;;;;;;;6.35;2.70;;;26.70;96.00;;;;;;5033945;28;20091;-54
2023/08/14 12:28:49;;;;;;;5.38;2.17;;;26.80;96.50;;;;;;5034152;28;20026;-49
2023/08/14 12:31:14;;;;;;;12.13;6.68;;;26.80;96.30;;;;;;5034310;28;20116;-52
2023/08/14 12:33:43;;;;;;;6.65;2.28;;;26.90;98.10;;;;;;5033849;28;20033;-53
2023/08/14 12:36:12;;;;;;;5.75;1.58;;;27.10;96.50;;;;;;5016090;28;20037;-52
2023/08/14 12:38:38;;;;;;;3.83;1.40;;;27.20;95.90;;;;;;5034056;28;20033;-50
2023/08/14 12:41:05;;;;;;;4.10;1.58;;;27.00;95.30;;;;;;5033687;28;20036;-51
2023/08/14 12:43:31;;;;;;;3.83;1.60;;;26.80;96.30;;;;;;5033718;28;20021;-54
2023/08/14 12:45:58;;;;;;;3.97;1.58;;;26.80;96.30;;;;;;5033669;28;20104;-49